sensor_id;sensor_type;location;lat;lon;timestamp;temperature;humidity
15072;DHT22;7635;56.696;13.002;2022-10-18T00:00:53;13.40;99.90
15072;DHT22;7635;56.696;13.002;2022-10-18T00:03:19;13.40;99.90
15072;DHT22;7635;56.696;13.002;2022-10-18T00:05:47;13.30;99.90
15072;DHT22;7635;56.696;13.002;2022-10-18T00:08:16;13.30;99.90
15072;DHT22;7635;56.696;13.002;2022-10-18T00:10:43;13.20;99.90
15072;DHT22;7635;56.696;13.002;2022-10-18T00:13:10;13.20;99.90
15072;DHT22;7635;56.696;13.002;2022-10-18T00:15:37;13.10;99.90
15072;DHT22;7635;56.696;13.002;2022-10-18T00:18:04;13.10;99.90
15072;DHT22;7635;56.696;13.002;2022-10-18T00:20:31;13.10;99.90
15072;DHT22;7635;56.696;13.002;2022-10-18T00:22:57;13.10;99.90
15072;DHT22;7635;56.696;13.002;2022-10-18T00:25:25;13.00;99.90
15072;DHT22;7635;56.696;13.002;2022-10-18T00:27:52;13.00;99.90
15072;DHT22;7635;56.696;13.002;2022-10-18T00:30:19;13.00;99.90
15072;DHT22;7635;56.696;13.002;2022-10-18T00:32:46;13.00;99.90
15072;DHT22;7635;56.696;13.002;2022-10-18T00:35:12;13.00;99.90
15072;DHT22;7635;56.696;13.002;2022-10-18T00:37:39;13.00;99.90
15072;DHT22;7635;56.696;13.002;2022-10-18T00:40:07;12.90;99.90
15072;DHT22;7635;56.696;13.002;2022-10-18T00:42:36;12.90;99.90
15072;DHT22;7635;56.696;13.002;2022-10-18T00:45:15;12.90;99.90
15072;DHT22;7635;56.696;13.002;2022-10-18T00:47:44;12.90;99.90
15072;DHT22;7635;56.696;13.002;2022-10-18T00:50:12;12.80;99.90
15072;DHT22;7635;56.696;13.002;2022-10-18T00:52:41;12.80;99.90
15072;DHT22;7635;56.696;13.002;2022-10-18T00:55:09;12.80;99.90
15072;DHT22;7635;56.696;13.002;2022-10-18T00:57:39;12.70;99.90
15072;DHT22;7635;56.696;13.002;2022-10-18T01:00:08;12.70;99.90
15072;DHT22;7635;56.696;13.002;2022-10-18T01:02:35;12.70;99.90
15072;DHT22;7635;56.696;13.002;2022-10-18T01:05:02;12.70;99.90
15072;DHT22;7635;56.696;13.002;2022-10-18T01:07:37;12.70;99.90
15072;DHT22;7635;56.696;13.002;2022-10-18T01:10:21;12.70;99.90
15072;DHT22;7635;56.696;13.002;2022-10-18T01:13:02;12.70;99.90
15072;DHT22;7635;56.696;13.002;2022-10-18T01:15:42;12.70;99.90
15072;DHT22;7635;56.696;13.002;2022-10-18T01:18:25;12.70;99.90
15072;DHT22;7635;56.696;13.002;2022-10-18T01:21:16;12.70;99.90
15072;DHT22;7635;56.696;13.002;2022-10-18T01:24:23;12.70;99.90
15072;DHT22;7635;56.696;13.002;2022-10-18T01:27:10;12.70;99.90
15072;DHT22;7635;56.696;13.002;2022-10-18T01:29:52;12.70;99.90
15072;DHT22;7635;56.696;13.002;2022-10-18T01:32:23;12.70;99.90
15072;DHT22;7635;56.696;13.002;2022-10-18T01:34:54;12.70;99.90
15072;DHT22;7635;56.696;13.002;2022-10-18T01:37:24;12.70;99.90
15072;DHT22;7635;56.696;13.002;2022-10-18T01:39:53;12.70;99.90
15072;DHT22;7635;56.696;13.002;2022-10-18T01:42:21;12.70;99.90
15072;DHT22;7635;56.696;13.002;2022-10-18T01:44:49;12.60;99.90
15072;DHT22;7635;56.696;13.002;2022-10-18T01:47:18;12.60;99.90
15072;DHT22;7635;56.696;13.002;2022-10-18T01:49:47;12.50;99.90
15072;DHT22;7635;56.696;13.002;2022-10-18T01:52:14;12.50;99.90
15072;DHT22;7635;56.696;13.002;2022-10-18T01:54:45;12.50;99.90
15072;DHT22;7635;56.696;13.002;2022-10-18T01:57:21;12.50;99.90
15072;DHT22;7635;56.696;13.002;2022-10-18T01:59:54;12.50;99.90
15072;DHT22;7635;56.696;13.002;2022-10-18T02:02:32;12.50;99.90
15072;DHT22;7635;56.696;13.002;2022-10-18T02:05:13;12.50;99.90
15072;DHT22;7635;56.696;13.002;2022-10-18T02:07:46;12.60;99.90
15072;DHT22;7635;56.696;13.002;2022-10-18T02:10:19;12.50;99.90
15072;DHT22;7635;56.696;13.002;2022-10-18T02:12:49;12.50;99.90
15072;DHT22;7635;56.696;13.002;2022-10-18T02:15:20;12.60;99.90
15072;DHT22;7635;56.696;13.002;2022-10-18T02:17:49;12.60;99.90
15072;DHT22;7635;56.696;13.002;2022-10-18T02:20:19;12.60;99.90
15072;DHT22;7635;56.696;13.002;2022-10-18T02:22:48;12.50;99.90
15072;DHT22;7635;56.696;13.002;2022-10-18T02:25:19;12.60;99.90
15072;DHT22;7635;56.696;13.002;2022-10-18T02:27:46;12.50;99.90
15072;DHT22;7635;56.696;13.002;2022-10-18T02:30:13;12.60;99.90
15072;DHT22;7635;56.696;13.002;2022-10-18T02:32:46;12.60;99.90
15072;DHT22;7635;56.696;13.002;2022-10-18T02:35:21;12.60;99.90
15072;DHT22;7635;56.696;13.002;2022-10-18T02:37:52;12.50;99.90
15072;DHT22;7635;56.696;13.002;2022-10-18T02:40:19;12.50;99.90
15072;DHT22;7635;56.696;13.002;2022-10-18T02:42:47;12.50;99.90
15072;DHT22;7635;56.696;13.002;2022-10-18T02:45:15;12.50;99.90
15072;DHT22;7635;56.696;13.002;2022-10-18T02:47:42;12.50;99.90
15072;DHT22;7635;56.696;13.002;2022-10-18T02:50:09;12.40;99.90
15072;DHT22;7635;56.696;13.002;2022-10-18T02:52:37;12.40;99.90
15072;DHT22;7635;56.696;13.002;2022-10-18T02:55:05;12.40;99.90
15072;DHT22;7635;56.696;13.002;2022-10-18T02:57:32;12.30;99.90
15072;DHT22;7635;56.696;13.002;2022-10-18T02:59:59;12.30;99.90
15072;DHT22;7635;56.696;13.002;2022-10-18T03:02:26;12.30;99.90
15072;DHT22;7635;56.696;13.002;2022-10-18T03:04:53;12.30;99.90
15072;DHT22;7635;56.696;13.002;2022-10-18T03:07:20;12.30;99.90
15072;DHT22;7635;56.696;13.002;2022-10-18T03:09:48;12.30;99.90
15072;DHT22;7635;56.696;13.002;2022-10-18T03:12:15;12.30;99.90
15072;DHT22;7635;56.696;13.002;2022-10-18T03:14:41;12.30;99.90
15072;DHT22;7635;56.696;13.002;2022-10-18T03:17:08;12.30;99.90
15072;DHT22;7635;56.696;13.002;2022-10-18T03:19:35;12.40;99.90
15072;DHT22;7635;56.696;13.002;2022-10-18T03:22:03;12.40;99.90
15072;DHT22;7635;56.696;13.002;2022-10-18T03:24:30;12.40;99.90
15072;DHT22;7635;56.696;13.002;2022-10-18T03:26:58;12.40;99.90
15072;DHT22;7635;56.696;13.002;2022-10-18T03:29:25;12.40;99.90
15072;DHT22;7635;56.696;13.002;2022-10-18T03:31:51;12.40;99.90
15072;DHT22;7635;56.696;13.002;2022-10-18T03:34:18;12.40;99.90
15072;DHT22;7635;56.696;13.002;2022-10-18T03:36:45;12.50;99.90
15072;DHT22;7635;56.696;13.002;2022-10-18T03:39:12;12.50;99.90
15072;DHT22;7635;56.696;13.002;2022-10-18T03:41:38;12.50;99.90
15072;DHT22;7635;56.696;13.002;2022-10-18T03:44:06;12.50;99.90
15072;DHT22;7635;56.696;13.002;2022-10-18T03:46:33;12.50;99.90
15072;DHT22;7635;56.696;13.002;2022-10-18T03:49:00;12.50;99.90
15072;DHT22;7635;56.696;13.002;2022-10-18T03:51:27;12.50;99.90
15072;DHT22;7635;56.696;13.002;2022-10-18T03:53:54;12.50;99.90
15072;DHT22;7635;56.696;13.002;2022-10-18T03:56:20;12.50;99.90
15072;DHT22;7635;56.696;13.002;2022-10-18T03:58:47;12.50;99.90
15072;DHT22;7635;56.696;13.002;2022-10-18T04:01:15;12.50;99.90
15072;DHT22;7635;56.696;13.002;2022-10-18T04:03:42;12.50;99.90
15072;DHT22;7635;56.696;13.002;2022-10-18T04:06:09;12.50;99.90
15072;DHT22;7635;56.696;13.002;2022-10-18T04:08:38;12.50;99.90
15072;DHT22;7635;56.696;13.002;2022-10-18T04:11:06;12.50;99.90
15072;DHT22;7635;56.696;13.002;2022-10-18T04:13:34;12.50;99.90
15072;DHT22;7635;56.696;13.002;2022-10-18T04:16:01;12.50;99.90
15072;DHT22;7635;56.696;13.002;2022-10-18T04:18:29;12.50;99.90
15072;DHT22;7635;56.696;13.002;2022-10-18T04:20:56;12.50;99.90
15072;DHT22;7635;56.696;13.002;2022-10-18T04:23:23;12.50;99.90
15072;DHT22;7635;56.696;13.002;2022-10-18T04:25:50;12.50;99.90
15072;DHT22;7635;56.696;13.002;2022-10-18T04:28:16;12.50;99.90
15072;DHT22;7635;56.696;13.002;2022-10-18T04:30:48;12.50;99.90
15072;DHT22;7635;56.696;13.002;2022-10-18T04:33:15;12.50;99.90
15072;DHT22;7635;56.696;13.002;2022-10-18T04:35:43;12.50;99.90
15072;DHT22;7635;56.696;13.002;2022-10-18T04:38:10;12.50;99.90
15072;DHT22;7635;56.696;13.002;2022-10-18T04:40:39;12.50;99.90
15072;DHT22;7635;56.696;13.002;2022-10-18T04:43:05;12.50;99.90
15072;DHT22;7635;56.696;13.002;2022-10-18T04:45:32;12.50;99.90
15072;DHT22;7635;56.696;13.002;2022-10-18T04:47:59;12.50;99.90
15072;DHT22;7635;56.696;13.002;2022-10-18T04:50:26;12.50;99.90
15072;DHT22;7635;56.696;13.002;2022-10-18T04:52:54;12.50;99.90
15072;DHT22;7635;56.696;13.002;2022-10-18T04:55:21;12.50;99.90
15072;DHT22;7635;56.696;13.002;2022-10-18T04:57:47;12.50;99.90
15072;DHT22;7635;56.696;13.002;2022-10-18T05:00:14;12.60;99.90
15072;DHT22;7635;56.696;13.002;2022-10-18T05:02:41;12.50;99.90
15072;DHT22;7635;56.696;13.002;2022-10-18T05:05:08;12.50;99.90
15072;DHT22;7635;56.696;13.002;2022-10-18T05:07:35;12.50;99.90
15072;DHT22;7635;56.696;13.002;2022-10-18T05:10:04;12.50;99.90
15072;DHT22;7635;56.696;13.002;2022-10-18T05:12:30;12.50;99.90
15072;DHT22;7635;56.696;13.002;2022-10-18T05:14:57;12.50;99.90
15072;DHT22;7635;56.696;13.002;2022-10-18T05:17:24;12.50;99.90
15072;DHT22;7635;56.696;13.002;2022-10-18T05:19:51;12.50;99.90
15072;DHT22;7635;56.696;13.002;2022-10-18T05:22:17;12.50;99.90
15072;DHT22;7635;56.696;13.002;2022-10-18T05:24:44;12.50;99.90
15072;DHT22;7635;56.696;13.002;2022-10-18T05:27:12;12.50;99.90
15072;DHT22;7635;56.696;13.002;2022-10-18T05:29:39;12.60;99.90
15072;DHT22;7635;56.696;13.002;2022-10-18T05:32:06;12.60;99.90
15072;DHT22;7635;56.696;13.002;2022-10-18T05:34:32;12.60;99.90
15072;DHT22;7635;56.696;13.002;2022-10-18T05:36:59;12.60;99.90
15072;DHT22;7635;56.696;13.002;2022-10-18T05:39:26;12.60;99.90
15072;DHT22;7635;56.696;13.002;2022-10-18T05:41:53;12.60;99.90
15072;DHT22;7635;56.696;13.002;2022-10-18T05:44:21;12.60;99.90
15072;DHT22;7635;56.696;13.002;2022-10-18T05:46:48;12.60;99.90
15072;DHT22;7635;56.696;13.002;2022-10-18T05:49:14;12.60;99.90
15072;DHT22;7635;56.696;13.002;2022-10-18T05:51:41;12.50;99.90
15072;DHT22;7635;56.696;13.002;2022-10-18T05:54:10;12.60;99.90
15072;DHT22;7635;56.696;13.002;2022-10-18T05:56:36;12.50;99.90
15072;DHT22;7635;56.696;13.002;2022-10-18T05:59:03;12.50;99.90
15072;DHT22;7635;56.696;13.002;2022-10-18T06:01:36;12.50;99.90
15072;DHT22;7635;56.696;13.002;2022-10-18T06:04:02;12.50;99.90
15072;DHT22;7635;56.696;13.002;2022-10-18T06:06:30;12.50;99.90
15072;DHT22;7635;56.696;13.002;2022-10-18T06:08:56;12.50;99.90
15072;DHT22;7635;56.696;13.002;2022-10-18T06:11:23;12.60;99.90
15072;DHT22;7635;56.696;13.002;2022-10-18T06:13:51;12.50;99.90
15072;DHT22;7635;56.696;13.002;2022-10-18T06:16:19;12.60;99.90
15072;DHT22;7635;56.696;13.002;2022-10-18T06:18:48;12.60;99.90
15072;DHT22;7635;56.696;13.002;2022-10-18T06:21:15;12.50;99.90
15072;DHT22;7635;56.696;13.002;2022-10-18T06:23:43;12.50;99.90
15072;DHT22;7635;56.696;13.002;2022-10-18T06:26:10;12.50;99.90
15072;DHT22;7635;56.696;13.002;2022-10-18T06:28:39;12.50;99.90
15072;DHT22;7635;56.696;13.002;2022-10-18T06:31:06;12.50;99.90
15072;DHT22;7635;56.696;13.002;2022-10-18T06:33:34;12.50;99.90
15072;DHT22;7635;56.696;13.002;2022-10-18T06:36:05;12.50;99.90
15072;DHT22;7635;56.696;13.002;2022-10-18T06:38:33;12.50;99.90
15072;DHT22;7635;56.696;13.002;2022-10-18T06:41:00;12.50;99.90
15072;DHT22;7635;56.696;13.002;2022-10-18T06:43:27;12.50;99.90
15072;DHT22;7635;56.696;13.002;2022-10-18T06:45:54;12.50;99.90
15072;DHT22;7635;56.696;13.002;2022-10-18T06:48:21;12.50;99.90
15072;DHT22;7635;56.696;13.002;2022-10-18T06:50:53;12.50;99.90
15072;DHT22;7635;56.696;13.002;2022-10-18T06:53:23;12.50;99.90
15072;DHT22;7635;56.696;13.002;2022-10-18T06:55:49;12.50;99.90
15072;DHT22;7635;56.696;13.002;2022-10-18T06:58:16;12.60;99.90
15072;DHT22;7635;56.696;13.002;2022-10-18T07:00:43;12.60;99.90
15072;DHT22;7635;56.696;13.002;2022-10-18T07:03:11;12.60;99.90
15072;DHT22;7635;56.696;13.002;2022-10-18T07:05:38;12.60;99.90
15072;DHT22;7635;56.696;13.002;2022-10-18T07:08:04;12.60;99.90
15072;DHT22;7635;56.696;13.002;2022-10-18T07:10:33;12.60;99.90
15072;DHT22;7635;56.696;13.002;2022-10-18T07:12:59;12.70;99.90
15072;DHT22;7635;56.696;13.002;2022-10-18T07:15:26;12.70;99.90
15072;DHT22;7635;56.696;13.002;2022-10-18T07:17:53;12.80;99.90
15072;DHT22;7635;56.696;13.002;2022-10-18T07:20:20;12.90;99.90
15072;DHT22;7635;56.696;13.002;2022-10-18T07:22:47;12.90;99.90
15072;DHT22;7635;56.696;13.002;2022-10-18T07:25:14;13.00;99.90
15072;DHT22;7635;56.696;13.002;2022-10-18T07:27:42;13.00;99.90
15072;DHT22;7635;56.696;13.002;2022-10-18T07:30:10;13.10;99.90
15072;DHT22;7635;56.696;13.002;2022-10-18T07:32:37;13.10;99.90
15072;DHT22;7635;56.696;13.002;2022-10-18T07:35:04;13.10;99.90
15072;DHT22;7635;56.696;13.002;2022-10-18T07:37:31;13.20;99.90
15072;DHT22;7635;56.696;13.002;2022-10-18T07:39:57;13.30;99.90
15072;DHT22;7635;56.696;13.002;2022-10-18T07:42:24;13.30;99.90
15072;DHT22;7635;56.696;13.002;2022-10-18T07:44:52;13.40;99.90
15072;DHT22;7635;56.696;13.002;2022-10-18T07:47:19;13.40;99.90
15072;DHT22;7635;56.696;13.002;2022-10-18T07:49:46;13.50;99.90
15072;DHT22;7635;56.696;13.002;2022-10-18T07:52:12;13.50;99.90
15072;DHT22;7635;56.696;13.002;2022-10-18T07:54:39;13.50;99.90
15072;DHT22;7635;56.696;13.002;2022-10-18T07:57:06;13.60;99.90
15072;DHT22;7635;56.696;13.002;2022-10-18T07:59:33;13.60;99.90
15072;DHT22;7635;56.696;13.002;2022-10-18T08:02:01;13.60;99.90
15072;DHT22;7635;56.696;13.002;2022-10-18T08:04:27;13.70;99.90
15072;DHT22;7635;56.696;13.002;2022-10-18T08:06:55;13.70;99.90
15072;DHT22;7635;56.696;13.002;2022-10-18T08:09:21;13.80;99.90
15072;DHT22;7635;56.696;13.002;2022-10-18T08:11:48;13.90;99.90
15072;DHT22;7635;56.696;13.002;2022-10-18T08:14:15;14.00;99.90
15072;DHT22;7635;56.696;13.002;2022-10-18T08:16:41;14.10;99.90
15072;DHT22;7635;56.696;13.002;2022-10-18T08:19:09;14.20;99.90
15072;DHT22;7635;56.696;13.002;2022-10-18T08:21:36;14.50;99.90
15072;DHT22;7635;56.696;13.002;2022-10-18T08:24:04;14.60;99.90
15072;DHT22;7635;56.696;13.002;2022-10-18T08:26:30;14.70;99.90
15072;DHT22;7635;56.696;13.002;2022-10-18T08:28:57;14.90;99.90
15072;DHT22;7635;56.696;13.002;2022-10-18T08:31:24;15.00;99.90
15072;DHT22;7635;56.696;13.002;2022-10-18T08:33:53;15.00;99.90
15072;DHT22;7635;56.696;13.002;2022-10-18T08:36:21;14.80;99.90
15072;DHT22;7635;56.696;13.002;2022-10-18T08:38:48;14.80;99.90
15072;DHT22;7635;56.696;13.002;2022-10-18T08:41:56;14.60;99.90
15072;DHT22;7635;56.696;13.002;2022-10-18T08:44:28;14.40;99.90
15072;DHT22;7635;56.696;13.002;2022-10-18T08:47:01;14.40;99.90
15072;DHT22;7635;56.696;13.002;2022-10-18T08:49:34;14.40;99.90
15072;DHT22;7635;56.696;13.002;2022-10-18T08:52:03;14.50;99.90
15072;DHT22;7635;56.696;13.002;2022-10-18T08:54:40;14.90;99.90
15072;DHT22;7635;56.696;13.002;2022-10-18T08:57:13;15.10;99.90
15072;DHT22;7635;56.696;13.002;2022-10-18T08:59:40;15.00;99.90
15072;DHT22;7635;56.696;13.002;2022-10-18T09:02:16;15.00;99.90
15072;DHT22;7635;56.696;13.002;2022-10-18T09:04:51;14.80;99.90
15072;DHT22;7635;56.696;13.002;2022-10-18T09:07:54;14.70;99.90
15072;DHT22;7635;56.696;13.002;2022-10-18T09:10:31;14.60;99.90
15072;DHT22;7635;56.696;13.002;2022-10-18T09:13:16;14.50;99.90
15072;DHT22;7635;56.696;13.002;2022-10-18T09:15:50;14.40;99.90
15072;DHT22;7635;56.696;13.002;2022-10-18T09:18:33;14.30;99.90
15072;DHT22;7635;56.696;13.002;2022-10-18T09:21:10;14.30;99.90
15072;DHT22;7635;56.696;13.002;2022-10-18T09:23:45;14.20;99.90
15072;DHT22;7635;56.696;13.002;2022-10-18T09:26:15;14.10;99.90
15072;DHT22;7635;56.696;13.002;2022-10-18T09:28:52;14.00;99.90
15072;DHT22;7635;56.696;13.002;2022-10-18T09:31:27;14.00;99.90
15072;DHT22;7635;56.696;13.002;2022-10-18T09:33:58;13.90;99.90
15072;DHT22;7635;56.696;13.002;2022-10-18T09:36:29;13.90;99.90
15072;DHT22;7635;56.696;13.002;2022-10-18T09:39:04;13.90;99.90
15072;DHT22;7635;56.696;13.002;2022-10-18T09:41:39;14.00;99.90
15072;DHT22;7635;56.696;13.002;2022-10-18T09:44:13;14.10;99.90
15072;DHT22;7635;56.696;13.002;2022-10-18T09:46:45;14.10;99.90
15072;DHT22;7635;56.696;13.002;2022-10-18T09:49:16;14.10;99.90
15072;DHT22;7635;56.696;13.002;2022-10-18T09:51:44;14.20;99.90
15072;DHT22;7635;56.696;13.002;2022-10-18T09:54:20;14.20;99.90
15072;DHT22;7635;56.696;13.002;2022-10-18T09:56:49;14.20;99.90
15072;DHT22;7635;56.696;13.002;2022-10-18T09:59:34;14.20;99.90
15072;DHT22;7635;56.696;13.002;2022-10-18T10:02:03;14.20;99.90
15072;DHT22;7635;56.696;13.002;2022-10-18T10:04:29;14.30;99.90
15072;DHT22;7635;56.696;13.002;2022-10-18T10:06:59;14.30;99.90
15072;DHT22;7635;56.696;13.002;2022-10-18T10:09:29;14.30;99.90
15072;DHT22;7635;56.696;13.002;2022-10-18T10:11:57;14.20;99.90
15072;DHT22;7635;56.696;13.002;2022-10-18T10:14:25;14.20;99.90
15072;DHT22;7635;56.696;13.002;2022-10-18T10:16:54;14.10;99.90
15072;DHT22;7635;56.696;13.002;2022-10-18T10:19:28;14.10;99.90
15072;DHT22;7635;56.696;13.002;2022-10-18T10:21:59;14.20;99.90
15072;DHT22;7635;56.696;13.002;2022-10-18T10:24:39;14.20;99.90
15072;DHT22;7635;56.696;13.002;2022-10-18T10:27:17;14.20;99.90
15072;DHT22;7635;56.696;13.002;2022-10-18T10:29:54;14.10;99.90
15072;DHT22;7635;56.696;13.002;2022-10-18T10:32:24;14.10;99.90
15072;DHT22;7635;56.696;13.002;2022-10-18T10:34:51;14.10;99.90
15072;DHT22;7635;56.696;13.002;2022-10-18T10:37:28;14.10;99.90
15072;DHT22;7635;56.696;13.002;2022-10-18T10:40:13;14.10;99.90
15072;DHT22;7635;56.696;13.002;2022-10-18T10:42:55;14.10;99.90
15072;DHT22;7635;56.696;13.002;2022-10-18T10:45:24;14.10;99.90
15072;DHT22;7635;56.696;13.002;2022-10-18T10:47:53;14.10;99.90
15072;DHT22;7635;56.696;13.002;2022-10-18T10:50:25;14.10;99.90
15072;DHT22;7635;56.696;13.002;2022-10-18T10:52:53;14.20;99.90
15072;DHT22;7635;56.696;13.002;2022-10-18T10:55:27;14.20;99.90
15072;DHT22;7635;56.696;13.002;2022-10-18T10:57:54;14.10;99.90
15072;DHT22;7635;56.696;13.002;2022-10-18T11:00:42;14.10;99.90
15072;DHT22;7635;56.696;13.002;2022-10-18T11:03:12;14.00;99.90
15072;DHT22;7635;56.696;13.002;2022-10-18T11:05:44;13.90;99.90
15072;DHT22;7635;56.696;13.002;2022-10-18T11:08:15;13.90;99.90
15072;DHT22;7635;56.696;13.002;2022-10-18T11:10:57;13.90;99.90
15072;DHT22;7635;56.696;13.002;2022-10-18T11:13:43;13.90;99.90
15072;DHT22;7635;56.696;13.002;2022-10-18T11:16:15;13.90;99.90
15072;DHT22;7635;56.696;13.002;2022-10-18T11:18:47;13.90;99.90
15072;DHT22;7635;56.696;13.002;2022-10-18T11:21:17;13.90;99.90
15072;DHT22;7635;56.696;13.002;2022-10-18T11:23:45;13.90;99.90
15072;DHT22;7635;56.696;13.002;2022-10-18T11:26:29;13.80;99.90
15072;DHT22;7635;56.696;13.002;2022-10-18T11:29:26;13.80;99.90
15072;DHT22;7635;56.696;13.002;2022-10-18T11:32:01;13.80;99.90
15072;DHT22;7635;56.696;13.002;2022-10-18T11:34:47;13.90;99.90
15072;DHT22;7635;56.696;13.002;2022-10-18T11:37:26;13.90;99.90
15072;DHT22;7635;56.696;13.002;2022-10-18T11:40:02;13.90;99.90
15072;DHT22;7635;56.696;13.002;2022-10-18T11:42:41;13.90;99.90
15072;DHT22;7635;56.696;13.002;2022-10-18T11:45:18;13.90;99.90
15072;DHT22;7635;56.696;13.002;2022-10-18T11:47:53;13.90;99.90
15072;DHT22;7635;56.696;13.002;2022-10-18T11:50:29;13.90;99.90
15072;DHT22;7635;56.696;13.002;2022-10-18T11:53:05;14.00;99.90
15072;DHT22;7635;56.696;13.002;2022-10-18T11:55:44;14.20;99.90
15072;DHT22;7635;56.696;13.002;2022-10-18T11:58:27;14.40;99.90
15072;DHT22;7635;56.696;13.002;2022-10-18T12:01:04;14.70;99.90
15072;DHT22;7635;56.696;13.002;2022-10-18T12:03:37;14.80;99.90
15072;DHT22;7635;56.696;13.002;2022-10-18T12:06:13;14.80;99.90
15072;DHT22;7635;56.696;13.002;2022-10-18T12:08:43;14.90;99.90
15072;DHT22;7635;56.696;13.002;2022-10-18T12:11:14;15.00;99.90
15072;DHT22;7635;56.696;13.002;2022-10-18T12:13:47;15.10;99.90
15072;DHT22;7635;56.696;13.002;2022-10-18T12:16:18;15.10;99.90
15072;DHT22;7635;56.696;13.002;2022-10-18T12:18:52;15.10;99.90
15072;DHT22;7635;56.696;13.002;2022-10-18T12:21:21;15.00;99.90
15072;DHT22;7635;56.696;13.002;2022-10-18T12:23:51;15.00;99.90
15072;DHT22;7635;56.696;13.002;2022-10-18T12:26:19;15.00;99.90
15072;DHT22;7635;56.696;13.002;2022-10-18T12:28:56;14.80;99.90
15072;DHT22;7635;56.696;13.002;2022-10-18T12:31:29;14.70;99.90
15072;DHT22;7635;56.696;13.002;2022-10-18T12:34:01;14.60;99.90
15072;DHT22;7635;56.696;13.002;2022-10-18T12:36:46;14.60;99.90
15072;DHT22;7635;56.696;13.002;2022-10-18T12:39:19;14.50;99.90
15072;DHT22;7635;56.696;13.002;2022-10-18T12:41:49;14.40;99.90
15072;DHT22;7635;56.696;13.002;2022-10-18T12:44:25;14.40;99.90
15072;DHT22;7635;56.696;13.002;2022-10-18T12:46:56;14.40;99.90
15072;DHT22;7635;56.696;13.002;2022-10-18T12:49:26;14.40;99.90
15072;DHT22;7635;56.696;13.002;2022-10-18T12:51:55;14.40;99.90
15072;DHT22;7635;56.696;13.002;2022-10-18T12:54:25;14.40;99.90
15072;DHT22;7635;56.696;13.002;2022-10-18T12:56:53;14.30;99.90
15072;DHT22;7635;56.696;13.002;2022-10-18T12:59:51;14.20;99.90
15072;DHT22;7635;56.696;13.002;2022-10-18T13:02:29;14.20;99.90
15072;DHT22;7635;56.696;13.002;2022-10-18T13:04:57;14.20;99.90
15072;DHT22;7635;56.696;13.002;2022-10-18T13:07:38;14.20;99.90
15072;DHT22;7635;56.696;13.002;2022-10-18T13:10:37;14.30;99.90
15072;DHT22;7635;56.696;13.002;2022-10-18T13:13:33;14.20;99.90
15072;DHT22;7635;56.696;13.002;2022-10-18T13:16:07;14.30;99.90
15072;DHT22;7635;56.696;13.002;2022-10-18T13:18:46;14.30;99.90
15072;DHT22;7635;56.696;13.002;2022-10-18T13:21:22;14.20;99.90
15072;DHT22;7635;56.696;13.002;2022-10-18T13:24:21;14.20;99.90
15072;DHT22;7635;56.696;13.002;2022-10-18T13:26:58;14.20;99.90
15072;DHT22;7635;56.696;13.002;2022-10-18T13:29:44;14.20;99.90
15072;DHT22;7635;56.696;13.002;2022-10-18T13:32:23;14.20;99.90
15072;DHT22;7635;56.696;13.002;2022-10-18T13:34:54;14.20;99.90
15072;DHT22;7635;56.696;13.002;2022-10-18T13:37:22;14.20;99.90
15072;DHT22;7635;56.696;13.002;2022-10-18T13:39:51;14.20;99.90
15072;DHT22;7635;56.696;13.002;2022-10-18T13:42:28;14.20;99.90
15072;DHT22;7635;56.696;13.002;2022-10-18T13:54:15;14.10;99.90
15072;DHT22;7635;56.696;13.002;2022-10-18T13:56:52;14.00;99.90
15072;DHT22;7635;56.696;13.002;2022-10-18T13:59:49;13.90;99.90
15072;DHT22;7635;56.696;13.002;2022-10-18T14:02:33;13.90;99.90
15072;DHT22;7635;56.696;13.002;2022-10-18T14:05:12;13.90;99.90
15072;DHT22;7635;56.696;13.002;2022-10-18T14:07:43;13.80;99.90
15072;DHT22;7635;56.696;13.002;2022-10-18T14:10:19;13.90;99.90
15072;DHT22;7635;56.696;13.002;2022-10-18T14:12:51;13.90;99.90
15072;DHT22;7635;56.696;13.002;2022-10-18T14:15:23;13.90;99.90
15072;DHT22;7635;56.696;13.002;2022-10-18T14:17:53;13.80;99.90
15072;DHT22;7635;56.696;13.002;2022-10-18T14:20:25;13.80;99.90
15072;DHT22;7635;56.696;13.002;2022-10-18T14:23:03;13.70;99.90
15072;DHT22;7635;56.696;13.002;2022-10-18T14:25:32;13.70;99.90
15072;DHT22;7635;56.696;13.002;2022-10-18T14:28:11;13.70;99.90
15072;DHT22;7635;56.696;13.002;2022-10-18T14:30:50;13.70;99.90
15072;DHT22;7635;56.696;13.002;2022-10-18T14:33:24;13.70;99.90
15072;DHT22;7635;56.696;13.002;2022-10-18T14:35:58;13.60;99.90
15072;DHT22;7635;56.696;13.002;2022-10-18T14:38:26;13.60;99.90
15072;DHT22;7635;56.696;13.002;2022-10-18T14:41:04;13.60;99.90
15072;DHT22;7635;56.696;13.002;2022-10-18T14:43:31;13.60;99.90
15072;DHT22;7635;56.696;13.002;2022-10-18T14:46:07;13.50;99.90
15072;DHT22;7635;56.696;13.002;2022-10-18T14:48:34;13.50;99.90
15072;DHT22;7635;56.696;13.002;2022-10-18T14:51:02;13.50;99.90
15072;DHT22;7635;56.696;13.002;2022-10-18T14:53:37;13.40;99.90
15072;DHT22;7635;56.696;13.002;2022-10-18T14:56:05;13.40;99.90
15072;DHT22;7635;56.696;13.002;2022-10-18T14:58:34;13.40;99.90
15072;DHT22;7635;56.696;13.002;2022-10-18T15:01:02;13.40;99.90
15072;DHT22;7635;56.696;13.002;2022-10-18T15:03:31;13.30;99.90
15072;DHT22;7635;56.696;13.002;2022-10-18T15:06:01;13.30;99.90
15072;DHT22;7635;56.696;13.002;2022-10-18T15:08:33;13.30;99.90
15072;DHT22;7635;56.696;13.002;2022-10-18T15:11:02;13.30;99.90
15072;DHT22;7635;56.696;13.002;2022-10-18T15:13:30;13.20;99.90
15072;DHT22;7635;56.696;13.002;2022-10-18T15:15:58;13.20;99.90
15072;DHT22;7635;56.696;13.002;2022-10-18T15:18:26;13.20;99.90
15072;DHT22;7635;56.696;13.002;2022-10-18T15:21:18;13.20;99.90
15072;DHT22;7635;56.696;13.002;2022-10-18T15:23:45;13.10;99.90
15072;DHT22;7635;56.696;13.002;2022-10-18T15:26:19;13.10;99.90
15072;DHT22;7635;56.696;13.002;2022-10-18T15:28:48;13.00;99.90
15072;DHT22;7635;56.696;13.002;2022-10-18T15:31:23;12.90;99.90
15072;DHT22;7635;56.696;13.002;2022-10-18T15:33:51;12.80;99.90
15072;DHT22;7635;56.696;13.002;2022-10-18T15:36:25;12.80;99.90
15072;DHT22;7635;56.696;13.002;2022-10-18T15:38:53;12.80;99.90
15072;DHT22;7635;56.696;13.002;2022-10-18T15:41:38;12.70;99.90
15072;DHT22;7635;56.696;13.002;2022-10-18T15:44:06;12.70;99.90
15072;DHT22;7635;56.696;13.002;2022-10-18T15:46:37;12.60;99.90
15072;DHT22;7635;56.696;13.002;2022-10-18T15:49:46;12.60;99.90
15072;DHT22;7635;56.696;13.002;2022-10-18T15:52:34;12.60;99.90
15072;DHT22;7635;56.696;13.002;2022-10-18T15:55:43;12.50;99.90
15072;DHT22;7635;56.696;13.002;2022-10-18T15:58:15;12.50;99.90
15072;DHT22;7635;56.696;13.002;2022-10-18T16:00:43;12.50;99.90
15072;DHT22;7635;56.696;13.002;2022-10-18T16:03:10;12.50;99.90
15072;DHT22;7635;56.696;13.002;2022-10-18T16:05:37;12.50;99.90